SBOSBO RHO / LGRP
Speedbird OnlineSpeedbird Online RHO / LGRP

Diagoras Airport
01:54 7°C

Location Rhodos, Greece
Latitude: 36.405399322509766
Longitude: 28.086200714111328
Web Wikipedia
Altitude 5 Meter / 17 Feet
Distance 2,770 KM / 1,721 Miles
from London.
Time Zone UTC +2 hours (Europe/Athens)
Codes IATA: RHO
ICAO: LGRP
Currency £1 equals EUR 1.13
Runways
RunwayLength (m)Surface
063306Asphalt
243306Asphalt
Radio
TypeDescriptionFrequency
A/GRDO563.7
APPRODOS APP118.25
ATISATIS126.35
GNDGND121.7
TWRTWR118.2
Live ATC
METAR LGRP 081420Z 32007KT 9999 FEW018 10/M05 Q1024 NOSIG
TAF TAF LGRP 081100Z 0812/0912 33015KT 9999 FEW018 SCT020
Weather As Of 09 Feb 2023 01:54
Description Few clouds
Wind 15 km/h from North (10°)
Cloud Cover 20%
Precipitation Rain: none, Snow: none
Sunrise 07:02
Sunset 17:41
Lounges Skyserv Lounge (Temporarily Closed), Main Terminal



Support Speedbird Online

© 2017-2023 Speedbird Online